Terminal Aerodrome Forecast
Issued by NWS

Home | Current Version | Previous Version | Text Only | Print | Product List | Glossary On
Versions: 1 2 3 4 5 6 7 8 9 10 11 12 13 14 15 16 17 18 19 20 21 22 23 24 25 26 27 28
000
FTUS42 KTAE 042300
TAFVLD
TAF
KVLD 042339Z 0500/0524 20009KT P6SM SCT040
     FM050100 18004KT 4SM BR OVC012
     FM050600 20003KT 1/2SM FG OVC002
     FM051600 20008KT 3SM BR OVC008
     FM052200 30010KT 6SM -RA BR OVC014=

USA.gov is the U.S. government's official web portal to all federal, state and local government web resources and services.